Time;durP1;ratioP1;P1;durP2;ratioP2;P2;SDS_P1;SDS_P2;PMS_P1;PMS_P2;Temp;Humidity;BMP_temperature;BMP_pressure;BME280_temperature;BME280_humidity;BME280_pressure;Samples;Min_cycle;Max_cycle;Signal;HPM_P1;HPM_P2
2024/01/03 00:01:21;;;;;;;128.68;65.20;;;;;;;;;;5030922;28;20017;-69
2024/01/03 00:03:47;;;;;;;113.13;49.95;;;;;;;;;;5034835;28;20025;-68
2024/01/03 00:06:15;;;;;;;56.05;19.52;;;;;;;;;;5033915;28;20021;-69
2024/01/03 00:08:41;;;;;;;52.85;22.88;;;;;;;;;;5043161;28;20069;-68
2024/01/03 00:11:08;;;;;;;42.63;23.00;;;;;;;;;;5042699;28;20014;-69
2024/01/03 00:13:35;;;;;;;44.00;13.68;;;;;;;;;;5043026;28;20096;-69
2024/01/03 00:16:04;;;;;;;30.83;10.23;;;;;;;;;;5047610;28;20033;-62
2024/01/03 00:18:49;;;;;;;32.50;8.63;;;;;;;;;;5062743;28;20016;-67
2024/01/03 00:21:22;;;;;;;33.45;10.25;;;;;;;;;;5061885;28;20013;-64
2024/01/03 00:23:56;;;;;;;42.08;20.98;;;;;;;;;;5062732;28;20025;-65
2024/01/03 00:26:26;;;;;;;45.15;18.08;;;;;;;;;;5062034;28;20025;-65
2024/01/03 00:28:53;;;;;;;38.17;15.95;;;;;;;;;;5062394;28;20096;-65
2024/01/03 00:31:41;;;;;;;36.25;13.45;;;;;;;;;;5056267;28;20041;-67
2024/01/03 00:34:13;;;;;;;36.60;12.57;;;;;;;;;;5031534;28;20089;-67
2024/01/03 00:36:40;;;;;;;45.08;11.82;;;;;;;;;;5023707;28;20017;-60
2024/01/03 00:39:08;;;;;;;29.80;10.02;;;;;;;;;;5033873;28;20064;-60
2024/01/03 00:41:35;;;;;;;29.98;10.38;;;;;;;;;;5042110;28;20010;-68
2024/01/03 00:44:01;;;;;;;22.63;9.30;;;;;;;;;;5042205;28;20033;-64
2024/01/03 00:46:28;;;;;;;28.77;10.50;;;;;;;;;;5035827;28;20021;-64
2024/01/03 00:48:54;;;;;;;24.35;9.57;;;;;;;;;;5024172;28;20072;-59
2024/01/03 00:51:21;;;;;;;27.35;11.07;;;;;;;;;;5022127;28;20022;-60
2024/01/03 00:53:48;;;;;;;19.92;10.45;;;;;;;;;;5022509;28;20357;-61
2024/01/03 00:56:15;;;;;;;24.55;9.52;;;;;;;;;;5022205;28;20317;-65
2024/01/03 00:58:41;;;;;;;47.83;10.93;;;;;;;;;;5022193;28;20026;-68
2024/01/03 01:01:08;;;;;;;16.65;12.70;;;;;;;;;;5023971;28;20085;-62
2024/01/03 01:03:35;;;;;;;22.27;12.43;;;;;;;;;;5031361;28;20022;-62
2024/01/03 01:06:02;;;;;;;15.18;10.05;;;;;;;;;;5021967;28;20202;-65
2024/01/03 01:08:28;;;;;;;23.55;8.95;;;;;;;;;;5042762;28;20038;-57
2024/01/03 01:10:55;;;;;;;17.95;7.15;;;;;;;;;;5042048;28;20029;-61
2024/01/03 01:13:22;;;;;;;14.27;7.32;;;;;;;;;;5041756;28;20052;-68
2024/01/03 01:15:48;;;;;;;15.90;7.70;;;;;;;;;;5036866;28;20406;-67
2024/01/03 01:18:15;;;;;;;11.57;6.97;;;;;;;;;;5033144;28;20028;-58
2024/01/03 01:20:42;;;;;;;13.18;6.70;;;;;;;;;;5032243;28;20040;-60
2024/01/03 01:23:08;;;;;;;12.20;6.70;;;;;;;;;;5021957;28;20025;-68
2024/01/03 01:25:35;;;;;;;12.57;7.25;;;;;;;;;;5021416;28;20028;-59
2024/01/03 01:28:01;;;;;;;12.10;7.18;;;;;;;;;;5021882;28;20030;-69
2024/01/03 01:30:28;;;;;;;10.10;7.10;;;;;;;;;;5021650;28;20075;-62
2024/01/03 01:32:55;;;;;;;12.90;7.63;;;;;;;;;;5021895;28;20421;-70
2024/01/03 01:35:21;;;;;;;11.23;8.07;;;;;;;;;;5021751;28;20026;-69
2024/01/03 01:37:48;;;;;;;31.45;10.38;;;;;;;;;;5021566;28;20026;-63
2024/01/03 01:40:15;;;;;;;14.35;8.95;;;;;;;;;;5021597;28;20049;-57
2024/01/03 01:42:45;;;;;;;17.15;9.27;;;;;;;;;;5021659;28;20026;-57
2024/01/03 01:45:11;;;;;;;15.77;9.90;;;;;;;;;;5037666;28;20029;-63
2024/01/03 01:47:39;;;;;;;14.10;11.35;;;;;;;;;;5032592;28;20388;-61
2024/01/03 01:50:07;;;;;;;18.25;12.30;;;;;;;;;;5029984;28;20010;-60
2024/01/03 01:52:33;;;;;;;18.92;11.05;;;;;;;;;;5032802;28;20064;-65
2024/01/03 01:55:00;;;;;;;12.55;8.90;;;;;;;;;;5034241;28;20074;-68
2024/01/03 01:57:28;;;;;;;16.45;9.23;;;;;;;;;;5030378;28;20018;-63
2024/01/03 01:59:55;;;;;;;10.75;7.95;;;;;;;;;;5031001;28;20080;-63
2024/01/03 02:02:22;;;;;;;10.25;7.00;;;;;;;;;;5034639;28;20029;-57
2024/01/03 02:04:48;;;;;;;10.13;5.95;;;;;;;;;;5032820;28;20085;-60
2024/01/03 02:07:15;;;;;;;11.15;6.38;;;;;;;;;;5029537;28;20028;-57
2024/01/03 02:09:42;;;;;;;11.38;6.45;;;;;;;;;;5030613;28;20025;-58
2024/01/03 02:12:09;;;;;;;9.35;6.50;;;;;;;;;;5031587;28;20287;-66
2024/01/03 02:14:36;;;;;;;7.30;6.10;;;;;;;;;;5036253;28;20025;-59
2024/01/03 02:17:02;;;;;;;12.65;6.72;;;;;;;;;;5032751;28;20205;-63
2024/01/03 02:19:29;;;;;;;10.95;6.25;;;;;;;;;;5028282;28;20066;-64
2024/01/03 02:21:56;;;;;;;62.55;9.45;;;;;;;;;;5029661;28;20019;-61
2024/01/03 02:24:23;;;;;;;19.10;7.03;;;;;;;;;;5028538;28;20354;-58
2024/01/03 02:26:50;;;;;;;18.23;6.93;;;;;;;;;;5027346;28;20300;-57
2024/01/03 02:29:16;;;;;;;9.35;6.35;;;;;;;;;;5029524;28;20029;-58
2024/01/03 02:31:43;;;;;;;10.95;6.75;;;;;;;;;;5030930;28;20084;-57
2024/01/03 02:34:09;;;;;;;11.68;6.65;;;;;;;;;;5035471;28;20033;-59
2024/01/03 02:36:36;;;;;;;18.48;6.45;;;;;;;;;;5041626;28;20032;-64
2024/01/03 02:39:03;;;;;;;17.95;7.10;;;;;;;;;;5042985;28;20048;-60
2024/01/03 02:41:30;;;;;;;14.93;6.88;;;;;;;;;;5030722;28;20100;-59
2024/01/03 02:43:56;;;;;;;15.25;6.95;;;;;;;;;;5034628;28;20018;-58
2024/01/03 02:46:23;;;;;;;11.95;6.88;;;;;;;;;;5032374;28;20025;-61
2024/01/03 02:48:49;;;;;;;9.27;6.50;;;;;;;;;;5031068;28;20029;-63
2024/01/03 02:51:19;;;;;;;9.77;5.95;;;;;;;;;;5029273;28;20018;-56
2024/01/03 02:53:46;;;;;;;12.85;5.95;;;;;;;;;;5029323;28;20049;-58
2024/01/03 02:56:13;;;;;;;6.57;5.63;;;;;;;;;;5030657;28;20321;-62
2024/01/03 02:58:39;;;;;;;9.38;6.15;;;;;;;;;;5035763;28;20029;-60
2024/01/03 03:01:06;;;;;;;9.38;5.85;;;;;;;;;;5039437;28;20321;-56
2024/01/03 03:03:33;;;;;;;9.70;6.00;;;;;;;;;;5028595;28;20026;-57
2024/01/03 03:06:00;;;;;;;23.23;6.35;;;;;;;;;;5030399;28;20201;-65
2024/01/03 03:08:26;;;;;;;18.75;6.07;;;;;;;;;;5030519;28;20037;-66
2024/01/03 03:10:53;;;;;;;11.40;5.70;;;;;;;;;;5029543;28;20014;-63
2024/01/03 03:13:19;;;;;;;10.75;5.40;;;;;;;;;;5031483;28;20026;-65
2024/01/03 03:15:47;;;;;;;23.05;7.05;;;;;;;;;;5034728;28;20029;-60
2024/01/03 03:18:13;;;;;;;51.55;8.52;;;;;;;;;;5033093;28;20030;-60
2024/01/03 03:20:40;;;;;;;23.33;6.63;;;;;;;;;;5023716;28;20017;-65
2024/01/03 03:23:07;;;;;;;27.73;6.93;;;;;;;;;;5022154;28;20032;-62
2024/01/03 03:25:33;;;;;;;28.27;6.97;;;;;;;;;;5022884;28;20029;-57
2024/01/03 03:28:02;;;;;;;17.40;6.68;;;;;;;;;;5021867;28;20041;-60
2024/01/03 03:30:28;;;;;;;17.20;6.00;;;;;;;;;;5021911;28;20022;-59
2024/01/03 03:32:55;;;;;;;23.00;6.57;;;;;;;;;;5021994;28;20314;-63
2024/01/03 03:35:21;;;;;;;14.98;6.10;;;;;;;;;;5021734;28;20191;-62
2024/01/03 03:37:48;;;;;;;11.45;4.80;;;;;;;;;;5021839;28;20264;-61
2024/01/03 03:40:15;;;;;;;15.45;6.00;;;;;;;;;;5021707;28;20022;-62
2024/01/03 03:42:45;;;;;;;10.95;5.32;;;;;;;;;;5022275;28;20030;-60
2024/01/03 03:45:12;;;;;;;11.23;6.13;;;;;;;;;;5023095;28;20143;-59
2024/01/03 03:47:38;;;;;;;11.20;5.20;;;;;;;;;;5022690;28;20029;-63
2024/01/03 03:50:05;;;;;;;9.77;5.45;;;;;;;;;;5023273;28;20191;-62
2024/01/03 03:52:32;;;;;;;8.50;4.93;;;;;;;;;;5022897;28;20030;-63
2024/01/03 03:54:58;;;;;;;7.63;4.80;;;;;;;;;;5023502;28;20327;-64
2024/01/03 03:57:25;;;;;;;7.22;4.60;;;;;;;;;;5023130;28;20077;-63
2024/01/03 03:59:51;;;;;;;12.43;4.55;;;;;;;;;;5022893;28;20037;-64
2024/01/03 04:02:18;;;;;;;9.57;4.43;;;;;;;;;;5022972;28;20099;-63
2024/01/03 04:04:45;;;;;;;7.65;4.43;;;;;;;;;;5023052;28;20029;-63
2024/01/03 04:07:11;;;;;;;5.65;4.20;;;;;;;;;;5022949;28;20085;-61
2024/01/03 04:09:38;;;;;;;7.82;4.30;;;;;;;;;;5023448;28;20089;-61
2024/01/03 04:12:04;;;;;;;7.10;4.53;;;;;;;;;;5023051;28;20026;-61
2024/01/03 04:14:31;;;;;;;8.13;4.22;;;;;;;;;;5023198;28;20025;-64
2024/01/03 04:16:57;;;;;;;6.05;4.22;;;;;;;;;;5022977;28;20056;-67
2024/01/03 04:19:25;;;;;;;7.15;4.10;;;;;;;;;;5023271;28;20030;-64
2024/01/03 04:21:51;;;;;;;7.25;4.25;;;;;;;;;;5022132;28;20071;-58
2024/01/03 04:24:18;;;;;;;6.90;4.40;;;;;;;;;;5022750;28;20041;-57
2024/01/03 04:26:45;;;;;;;7.82;3.83;;;;;;;;;;5022629;28;20237;-55
2024/01/03 04:29:11;;;;;;;6.07;4.00;;;;;;;;;;5023288;28;20089;-55
2024/01/03 04:31:38;;;;;;;7.45;3.40;;;;;;;;;;5022646;28;20029;-55
2024/01/03 04:34:05;;;;;;;6.60;3.83;;;;;;;;;;5022937;28;20030;-57
2024/01/03 04:36:31;;;;;;;8.40;4.00;;;;;;;;;;5022392;28;20033;-59
2024/01/03 04:39:01;;;;;;;5.20;3.55;;;;;;;;;;5023021;28;20040;-60
2024/01/03 04:41:27;;;;;;;4.35;3.63;;;;;;;;;;5022456;28;20056;-58
2024/01/03 04:43:55;;;;;;;4.13;3.40;;;;;;;;;;5022784;28;20018;-59
2024/01/03 04:46:22;;;;;;;5.53;3.55;;;;;;;;;;5022511;28;20234;-62
2024/01/03 04:48:48;;;;;;;5.60;3.78;;;;;;;;;;5022791;28;20022;-58
2024/01/03 04:51:18;;;;;;;8.77;3.88;;;;;;;;;;5022366;28;20026;-61
2024/01/03 04:53:44;;;;;;;4.90;3.28;;;;;;;;;;5022421;28;20259;-62
2024/01/03 04:56:11;;;;;;;5.88;3.40;;;;;;;;;;5022322;28;20056;-62
2024/01/03 04:58:37;;;;;;;6.20;3.85;;;;;;;;;;5022596;28;20206;-61
2024/01/03 05:01:07;;;;;;;5.30;3.22;;;;;;;;;;5022205;28;20068;-63
2024/01/03 05:03:33;;;;;;;5.40;3.30;;;;;;;;;;5022535;28;20301;-60
2024/01/03 05:06:00;;;;;;;5.35;3.40;;;;;;;;;;5022100;28;20033;-61
2024/01/03 05:08:27;;;;;;;5.43;3.28;;;;;;;;;;5022339;28;20037;-62
2024/01/03 05:10:53;;;;;;;5.65;3.20;;;;;;;;;;5022027;28;20021;-62
2024/01/03 05:13:20;;;;;;;5.72;3.40;;;;;;;;;;5022327;28;20033;-55
2024/01/03 05:15:47;;;;;;;4.07;3.67;;;;;;;;;;5021905;28;20405;-55
2024/01/03 05:18:13;;;;;;;6.03;3.67;;;;;;;;;;5022083;28;20352;-56
2024/01/03 05:20:40;;;;;;;6.97;3.17;;;;;;;;;;5021985;28;20042;-59
2024/01/03 05:23:06;;;;;;;4.95;3.30;;;;;;;;;;5021986;28;20240;-56
2024/01/03 05:25:33;;;;;;;4.15;3.40;;;;;;;;;;5021925;28;20040;-61
2024/01/03 05:27:59;;;;;;;4.88;3.60;;;;;;;;;;5022327;28;20210;-59
2024/01/03 11:42:32;;;;;;;21.30;6.65;;;;;;;;;;5142145;27;20399;-59
2024/01/03 11:45:09;;;;;;;27.70;7.22;;;;;;;;;;5140552;28;20034;-61
2024/01/03 11:47:39;;;;;;;17.63;6.45;;;;;;;;;;5140339;28;20015;-58
2024/01/03 11:50:08;;;;;;;21.98;6.63;;;;;;;;;;5140559;28;20115;-58
2024/01/03 11:52:38;;;;;;;17.05;6.00;;;;;;;;;;5140259;28;20023;-57
2024/01/03 11:55:10;;;;;;;14.90;5.47;;;;;;;;;;5140523;28;20020;-58
2024/01/03 11:57:37;;;;;;;;;;;;;;;;;;5140938;28;20463;-58
2024/01/03 12:00:05;;;;;;;15.02;6.07;;;;;;;;;;5141071;28;20184;-56
2024/01/03 12:02:32;;;;;;;21.90;6.63;;;;;;;;;;5141713;28;20184;-56
2024/01/03 12:04:59;;;;;;;19.10;6.15;;;;;;;;;;5142075;28;20030;-59
2024/01/03 12:07:27;;;;;;;14.63;5.85;;;;;;;;;;5141525;28;20090;-58
2024/01/03 12:09:54;;;;;;;16.63;5.97;;;;;;;;;;5141571;28;20023;-59
2024/01/03 12:12:20;;;;;;;19.23;6.05;;;;;;;;;;5141657;28;20072;-61
2024/01/03 12:14:51;;;;;;;18.58;6.18;;;;;;;;;;5141569;28;20038;-57
2024/01/03 12:17:24;;;;;;;17.52;6.05;;;;;;;;;;5141482;28;20078;-56
2024/01/03 12:19:51;;;;;;;21.15;5.90;;;;;;;;;;5141441;28;20019;-58
2024/01/03 12:22:24;;;;;;;17.50;6.45;;;;;;;;;;5141343;28;20072;-55
2024/01/03 12:24:51;;;;;;;12.32;6.50;;;;;;;;;;5141420;28;20328;-55
2024/01/03 12:27:22;;;;;;;12.23;6.15;;;;;;;;;;5141250;28;20030;-59
2024/01/03 12:29:49;;;;;;;12.68;6.15;;;;;;;;;;5140997;28;20038;-58
2024/01/03 12:32:17;;;;;;;16.85;6.20;;;;;;;;;;5141121;28;20020;-59
2024/01/03 12:34:44;;;;;;;14.27;5.85;;;;;;;;;;5141152;28;20325;-56
2024/01/03 12:37:11;;;;;;;12.23;5.80;;;;;;;;;;5141088;27;20015;-58
2024/01/03 12:39:38;;;;;;;14.98;5.75;;;;;;;;;;5141040;28;20017;-59
2024/01/03 12:42:05;;;;;;;13.35;5.80;;;;;;;;;;5133518;28;20078;-59
2024/01/03 12:44:32;;;;;;;13.32;5.50;;;;;;;;;;5127123;28;20020;-60
2024/01/03 12:46:59;;;;;;;9.98;5.50;;;;;;;;;;5127319;28;20018;-61
2024/01/03 12:49:26;;;;;;;14.43;5.95;;;;;;;;;;5127314;28;20015;-61
2024/01/03 12:51:56;;;;;;;12.10;5.72;;;;;;;;;;5127098;28;20097;-59
2024/01/03 12:54:22;;;;;;;10.27;5.20;;;;;;;;;;5126999;28;20016;-59
2024/01/03 12:56:49;;;;;;;10.27;4.88;;;;;;;;;;5127025;28;20012;-60
2024/01/03 12:59:17;;;;;;;9.75;4.85;;;;;;;;;;5126933;28;20080;-60
2024/01/03 13:01:44;;;;;;;11.00;4.55;;;;;;;;;;5127255;28;20319;-60
2024/01/03 13:04:11;;;;;;;7.22;5.13;;;;;;;;;;5126927;28;20307;-60
2024/01/03 13:06:37;;;;;;;7.68;5.28;;;;;;;;;;5127176;28;20255;-60
2024/01/03 13:09:04;;;;;;;8.20;4.78;;;;;;;;;;5127047;28;20027;-60
2024/01/03 13:11:31;;;;;;;7.50;4.40;;;;;;;;;;5127216;28;20237;-60
2024/01/03 13:13:57;;;;;;;7.38;4.82;;;;;;;;;;5126568;28;20015;-60
2024/01/03 13:16:24;;;;;;;10.88;4.55;;;;;;;;;;5126522;28;20076;-59
2024/01/03 13:18:51;;;;;;;6.70;4.57;;;;;;;;;;5126622;28;20016;-61
2024/01/03 13:21:17;;;;;;;9.18;4.75;;;;;;;;;;5126759;28;20364;-61
2024/01/03 13:23:44;;;;;;;12.20;4.60;;;;;;;;;;5126513;28;20023;-61
2024/01/03 13:26:11;;;;;;;9.38;4.75;;;;;;;;;;5126847;28;20028;-61
2024/01/03 13:28:40;;;;;;;6.78;4.50;;;;;;;;;;5126253;28;20029;-61
2024/01/03 13:31:14;;;;;;;6.47;4.13;;;;;;;;;;5126476;28;20051;-61
2024/01/03 13:33:41;;;;;;;6.97;4.25;;;;;;;;;;5126549;28;20012;-61
2024/01/03 13:36:08;;;;;;;11.70;5.15;;;;;;;;;;5126596;28;20033;-62
2024/01/03 13:38:35;;;;;;;7.82;4.60;;;;;;;;;;5126243;28;20016;-62
2024/01/03 13:41:02;;;;;;;6.22;4.35;;;;;;;;;;5126186;28;20047;-61
2024/01/03 13:43:28;;;;;;;6.60;4.15;;;;;;;;;;5126002;28;20056;-61
2024/01/03 13:45:55;;;;;;;10.68;4.50;;;;;;;;;;5126412;28;20086;-61
2024/01/03 13:48:22;;;;;;;10.63;4.40;;;;;;;;;;5126116;28;20024;-61
2024/01/03 13:50:48;;;;;;;15.88;4.38;;;;;;;;;;5126119;28;20031;-61
2024/01/03 13:53:16;;;;;;;15.43;4.63;;;;;;;;;;5124939;28;20016;-61
2024/01/03 13:55:43;;;;;;;9.32;4.35;;;;;;;;;;5126136;28;20030;-61
2024/01/03 13:58:09;;;;;;;10.95;4.45;;;;;;;;;;5123823;27;20240;-60
2024/01/03 14:00:36;;;;;;;7.22;4.63;;;;;;;;;;5116378;28;20059;-61
2024/01/03 14:03:04;;;;;;;11.52;5.07;;;;;;;;;;5120219;28;20024;-63
2024/01/03 14:05:35;;;;;;;11.30;4.70;;;;;;;;;;5114706;28;20031;-60
2024/01/03 14:08:01;;;;;;;7.45;4.85;;;;;;;;;;5115099;28;20023;-59
2024/01/03 14:10:28;;;;;;;9.45;4.80;;;;;;;;;;5125709;28;20023;-65
2024/01/03 14:12:55;;;;;;;6.80;4.38;;;;;;;;;;5121861;27;20016;-59
2024/01/03 14:15:22;;;;;;;8.20;4.68;;;;;;;;;;5111457;28;20203;-59
2024/01/03 14:17:49;;;;;;;7.88;4.55;;;;;;;;;;5116123;28;20085;-59
2024/01/03 14:20:16;;;;;;;10.38;4.47;;;;;;;;;;5122123;28;20028;-59
2024/01/03 14:22:43;;;;;;;8.77;4.57;;;;;;;;;;5104983;28;20235;-59
2024/01/03 14:25:13;;;;;;;7.03;4.35;;;;;;;;;;5104962;28;20020;-59
2024/01/03 14:27:40;;;;;;;8.50;4.50;;;;;;;;;;5106395;28;20027;-60
2024/01/03 14:30:12;;;;;;;9.43;4.72;;;;;;;;;;5105084;28;20035;-58
2024/01/03 14:32:43;;;;;;;20.13;4.80;;;;;;;;;;5109303;28;20023;-59
2024/01/03 14:35:10;;;;;;;9.82;4.25;;;;;;;;;;5106520;28;20016;-57
2024/01/03 17:22:50;;;;;;;9.27;5.50;;;;;;;;;;4993501;28;20106;-58
2024/01/03 17:25:17;;;;;;;8.93;6.53;;;;;;;;;;4999904;28;20033;-44
2024/01/03 17:27:43;;;;;;;7.80;6.18;;;;;;;;;;5001958;28;20045;-44
2024/01/03 17:30:10;;;;;;;7.55;6.03;;;;;;;;;;5005919;28;20020;-44
2024/01/03 17:32:37;;;;;;;9.70;6.03;;;;;;;;;;5009356;28;20028;-50
2024/01/03 17:35:03;;;;;;;10.60;6.70;;;;;;;;;;5005824;28;20014;-50
2024/01/03 17:37:30;;;;;;;9.85;6.93;;;;;;;;;;5006121;28;20253;-45
2024/01/03 17:39:56;;;;;;;9.00;6.20;;;;;;;;;;5001898;28;20023;-45
2024/01/03 17:42:23;;;;;;;6.68;5.70;;;;;;;;;;5005323;28;20057;-58
2024/01/03 17:44:49;;;;;;;9.38;6.03;;;;;;;;;;5005650;28;20042;-54
2024/01/03 17:47:16;;;;;;;9.70;5.75;;;;;;;;;;5005999;28;20053;-54
2024/01/03 17:49:43;;;;;;;7.68;5.28;;;;;;;;;;5005540;28;20206;-50
2024/01/03 17:52:10;;;;;;;6.65;5.38;;;;;;;;;;5001848;28;20026;-48
2024/01/03 17:54:36;;;;;;;9.25;5.95;;;;;;;;;;5003898;28;20085;-48
2024/01/03 17:57:03;;;;;;;9.50;5.53;;;;;;;;;;4983261;28;20033;-52
2024/01/03 17:59:30;;;;;;;9.68;5.40;;;;;;;;;;5003616;28;20384;-53
2024/01/03 18:01:57;;;;;;;9.85;5.78;;;;;;;;;;5005709;28;20042;-54
2024/01/03 18:04:24;;;;;;;6.80;5.38;;;;;;;;;;5000743;28;20019;-50
2024/01/03 18:06:50;;;;;;;8.90;5.70;;;;;;;;;;5003769;28;20030;-52
2024/01/03 18:09:17;;;;;;;24.75;6.72;;;;;;;;;;5003558;28;20097;-54
2024/01/03 18:11:44;;;;;;;18.83;7.18;;;;;;;;;;5001747;28;20072;-52
2024/01/03 18:14:10;;;;;;;19.42;6.97;;;;;;;;;;4995071;28;20018;-53
2024/01/03 18:16:37;;;;;;;30.65;9.73;;;;;;;;;;4995310;28;20213;-49
2024/01/03 18:19:04;;;;;;;39.22;10.25;;;;;;;;;;5003881;28;20050;-54
2024/01/03 18:21:30;;;;;;;32.70;9.43;;;;;;;;;;5005693;28;20349;-52
2024/01/03 18:23:57;;;;;;;29.65;8.50;;;;;;;;;;5004573;28;20154;-55
2024/01/03 18:26:24;;;;;;;23.60;8.48;;;;;;;;;;5004258;28;20030;-49
2024/01/03 18:28:50;;;;;;;24.65;8.43;;;;;;;;;;4986655;28;20022;-53
2024/01/03 18:31:17;;;;;;;18.80;7.55;;;;;;;;;;5005274;28;20040;-55
2024/01/03 18:33:44;;;;;;;25.15;7.60;;;;;;;;;;5010408;28;20022;-58
2024/01/03 18:36:12;;;;;;;32.00;9.25;;;;;;;;;;5005143;28;20026;-54
2024/01/03 18:38:39;;;;;;;24.60;7.43;;;;;;;;;;5004992;28;20019;-58
2024/01/03 18:41:05;;;;;;;22.85;8.07;;;;;;;;;;5004587;28;20026;-55
2024/01/03 18:43:32;;;;;;;26.33;8.32;;;;;;;;;;5005356;28;20023;-58
2024/01/03 18:45:58;;;;;;;23.63;7.68;;;;;;;;;;5007006;28;20409;-57
2024/01/03 18:48:25;;;;;;;39.35;8.48;;;;;;;;;;5004335;28;20025;-51
2024/01/03 18:50:52;;;;;;;33.30;9.02;;;;;;;;;;5007390;28;20037;-51
2024/01/03 18:53:19;;;;;;;33.55;8.23;;;;;;;;;;5016376;28;20314;-53
2024/01/03 18:55:46;;;;;;;40.42;8.82;;;;;;;;;;5011200;28;20033;-58
2024/01/03 18:58:13;;;;;;;27.17;6.97;;;;;;;;;;5014770;28;20029;-55
2024/01/03 19:00:43;;;;;;;23.73;7.75;;;;;;;;;;5004766;28;20125;-56
2024/01/03 19:03:09;;;;;;;24.85;7.40;;;;;;;;;;5019446;28;20079;-47
2024/01/03 19:05:36;;;;;;;32.00;7.80;;;;;;;;;;5004289;28;20033;-52
2024/01/03 19:08:03;;;;;;;20.60;7.05;;;;;;;;;;5004814;28;20026;-53
2024/01/03 19:10:29;;;;;;;15.77;6.47;;;;;;;;;;5001290;28;20018;-53
2024/01/03 19:12:56;;;;;;;27.08;7.47;;;;;;;;;;5003355;28;20082;-47
2024/01/03 19:15:22;;;;;;;14.02;6.40;;;;;;;;;;4993326;28;20252;-45
2024/01/03 19:17:49;;;;;;;18.50;7.07;;;;;;;;;;5004114;28;20325;-47
2024/01/03 19:20:16;;;;;;;15.35;6.65;;;;;;;;;;5001368;28;20072;-50
2024/01/03 19:22:43;;;;;;;23.55;7.65;;;;;;;;;;5000159;28;20041;-49
2024/01/03 19:25:13;;;;;;;14.88;6.18;;;;;;;;;;4997893;28;20158;-54
2024/01/03 19:27:40;;;;;;;10.35;5.72;;;;;;;;;;5004643;28;20040;-56
2024/01/03 19:30:08;;;;;;;13.73;5.95;;;;;;;;;;5009171;28;20022;-49
2024/01/03 19:32:34;;;;;;;9.45;5.10;;;;;;;;;;5000951;28;20306;-53
2024/01/03 19:35:01;;;;;;;8.68;5.38;;;;;;;;;;5009564;28;20248;-50
2024/01/03 19:37:28;;;;;;;15.15;5.75;;;;;;;;;;5001644;28;20045;-49
2024/01/03 19:39:54;;;;;;;9.82;5.53;;;;;;;;;;5003417;28;20314;-52
2024/01/03 19:42:21;;;;;;;15.32;5.80;;;;;;;;;;5002530;28;20086;-54
2024/01/03 19:44:47;;;;;;;6.60;5.20;;;;;;;;;;5005273;28;20333;-53
2024/01/03 19:47:14;;;;;;;14.20;5.45;;;;;;;;;;5001262;28;20302;-49
2024/01/03 19:49:43;;;;;;;8.15;5.22;;;;;;;;;;4996645;28;20077;-57
2024/01/03 19:52:10;;;;;;;9.05;4.68;;;;;;;;;;5004737;28;20173;-54
2024/01/03 19:54:37;;;;;;;8.90;4.95;;;;;;;;;;4985342;28;20159;-53
2024/01/03 19:57:03;;;;;;;7.82;4.90;;;;;;;;;;5005462;28;20030;-55
2024/01/03 19:59:30;;;;;;;11.80;5.97;;;;;;;;;;5004881;28;20305;-55
2024/01/03 20:01:57;;;;;;;15.13;6.07;;;;;;;;;;5006745;28;20294;-53
2024/01/03 20:04:24;;;;;;;34.83;7.60;;;;;;;;;;5007416;28;20018;-54
2024/01/03 20:06:52;;;;;;;29.75;6.80;;;;;;;;;;5007157;28;20045;-51
2024/01/03 20:09:19;;;;;;;26.95;7.38;;;;;;;;;;4990088;28;20030;-52
2024/01/03 20:11:45;;;;;;;49.70;9.55;;;;;;;;;;5005914;28;20093;-50
2024/01/03 20:14:12;;;;;;;44.33;9.13;;;;;;;;;;5007386;28;20182;-54
2024/01/03 20:16:40;;;;;;;46.28;9.75;;;;;;;;;;5007778;28;20030;-49
2024/01/03 20:19:08;;;;;;;39.15;8.40;;;;;;;;;;5007592;28;20006;-51
2024/01/03 20:21:40;;;;;;;53.75;9.75;;;;;;;;;;5006431;28;20097;-49
2024/01/03 20:24:07;;;;;;;37.45;7.57;;;;;;;;;;5006460;28;20054;-54
2024/01/03 20:26:37;;;;;;;35.00;7.65;;;;;;;;;;5006706;28;20030;-54
2024/01/03 20:29:04;;;;;;;27.23;6.78;;;;;;;;;;5006679;28;20351;-52
2024/01/03 20:31:30;;;;;;;21.45;6.75;;;;;;;;;;5006492;28;20041;-52
2024/01/03 20:33:57;;;;;;;23.30;6.50;;;;;;;;;;4989650;28;20388;-53
2024/01/03 20:36:24;;;;;;;34.05;7.22;;;;;;;;;;5004397;28;20037;-53
2024/01/03 20:38:55;;;;;;;20.92;7.00;;;;;;;;;;4989538;28;20089;-56
2024/01/03 20:41:22;;;;;;;19.73;6.65;;;;;;;;;;4988249;28;20049;-51
2024/01/03 20:43:49;;;;;;;20.60;7.15;;;;;;;;;;5006778;28;20030;-54
2024/01/03 20:46:16;;;;;;;26.48;7.68;;;;;;;;;;5003460;28;20034;-54
2024/01/03 20:48:43;;;;;;;27.08;7.78;;;;;;;;;;5005972;28;20026;-54
2024/01/03 20:51:16;;;;;;;27.83;7.63;;;;;;;;;;5005890;28;20026;-51
2024/01/03 20:53:43;;;;;;;22.70;7.40;;;;;;;;;;5006844;28;20085;-53
2024/01/03 20:56:10;;;;;;;30.88;7.95;;;;;;;;;;5005815;28;20253;-51
2024/01/03 20:58:39;;;;;;;27.27;8.02;;;;;;;;;;5006551;28;20021;-56
2024/01/03 21:01:06;;;;;;;26.38;7.55;;;;;;;;;;5002775;28;20141;-55
2024/01/03 21:03:40;;;;;;;18.20;7.18;;;;;;;;;;4998388;28;20018;-53
2024/01/03 21:06:07;;;;;;;19.23;6.95;;;;;;;;;;5003629;28;20034;-55
2024/01/03 21:08:36;;;;;;;17.77;6.43;;;;;;;;;;5006324;28;20061;-56
2024/01/03 21:11:08;;;;;;;18.65;7.13;;;;;;;;;;5000272;28;20018;-58
2024/01/03 21:13:35;;;;;;;20.33;6.90;;;;;;;;;;5003089;28;20329;-56
2024/01/03 21:16:02;;;;;;;11.52;6.53;;;;;;;;;;5005793;28;20034;-54
2024/01/03 21:18:28;;;;;;;12.52;6.40;;;;;;;;;;5005370;28;20072;-52
2024/01/03 21:20:55;;;;;;;13.57;6.28;;;;;;;;;;5004634;28;20245;-49
2024/01/03 21:23:22;;;;;;;15.05;6.40;;;;;;;;;;5005727;28;20253;-52
2024/01/03 21:25:48;;;;;;;12.23;6.25;;;;;;;;;;5000361;28;20077;-52
2024/01/03 21:28:15;;;;;;;18.60;6.25;;;;;;;;;;4996627;28;20077;-55
2024/01/03 21:30:42;;;;;;;19.55;6.18;;;;;;;;;;4991631;28;20200;-53
2024/01/03 21:33:08;;;;;;;14.98;6.43;;;;;;;;;;5001585;28;20050;-59
2024/01/03 21:35:35;;;;;;;17.65;6.57;;;;;;;;;;4997441;28;20097;-45
2024/01/03 21:38:02;;;;;;;33.53;6.25;;;;;;;;;;4998566;28;20023;-57
2024/01/03 21:40:28;;;;;;;20.98;6.25;;;;;;;;;;4996479;28;20049;-56
2024/01/03 21:42:55;;;;;;;27.27;6.93;;;;;;;;;;4997101;28;20427;-51
2024/01/03 21:45:21;;;;;;;20.10;6.70;;;;;;;;;;4998259;28;20033;-53
2024/01/03 21:47:48;;;;;;;12.88;6.18;;;;;;;;;;4996163;28;20030;-52
2024/01/03 21:50:15;;;;;;;14.80;6.95;;;;;;;;;;4994035;28;20022;-51
2024/01/03 21:52:45;;;;;;;24.30;7.70;;;;;;;;;;4997671;28;20204;-52
2024/01/03 21:55:12;;;;;;;23.83;6.57;;;;;;;;;;4975742;28;20030;-47
2024/01/03 21:57:39;;;;;;;15.93;6.95;;;;;;;;;;4995284;28;20210;-51
2024/01/03 22:00:06;;;;;;;17.88;5.90;;;;;;;;;;5003184;28;20089;-48
2024/01/03 22:02:32;;;;;;;13.48;6.25;;;;;;;;;;5001775;28;20030;-48
2024/01/03 22:05:02;;;;;;;11.32;6.05;;;;;;;;;;4997874;28;20026;-46
2024/01/03 22:07:29;;;;;;;12.85;6.45;;;;;;;;;;4995619;28;20023;-49
2024/01/03 22:09:58;;;;;;;16.25;6.82;;;;;;;;;;5005371;28;20088;-48
2024/01/03 22:12:24;;;;;;;10.40;6.57;;;;;;;;;;5010022;28;20029;-54
2024/01/03 22:14:52;;;;;;;18.77;6.68;;;;;;;;;;5002985;28;20081;-47
2024/01/03 22:17:19;;;;;;;17.55;6.80;;;;;;;;;;5003222;28;20026;-49
2024/01/03 22:19:45;;;;;;;14.73;6.95;;;;;;;;;;4983796;28;20023;-49
2024/01/03 22:22:12;;;;;;;20.60;6.90;;;;;;;;;;5003437;28;20179;-50
2024/01/03 22:24:40;;;;;;;34.20;9.23;;;;;;;;;;5003140;28;20046;-52
2024/01/03 22:27:07;;;;;;;46.05;9.50;;;;;;;;;;5006785;28;20213;-51
2024/01/03 22:29:33;;;;;;;37.55;10.30;;;;;;;;;;4994976;28;20022;-55
2024/01/03 22:32:00;;;;;;;31.90;9.13;;;;;;;;;;5004172;28;20222;-49
2024/01/03 22:34:26;;;;;;;30.92;8.07;;;;;;;;;;5001801;28;20278;-53
2024/01/03 22:36:53;;;;;;;34.88;8.80;;;;;;;;;;5003543;28;20308;-47
2024/01/03 22:39:20;;;;;;;38.15;9.55;;;;;;;;;;5004243;28;20225;-52
2024/01/03 22:41:46;;;;;;;27.50;9.40;;;;;;;;;;5003743;28;20396;-49
2024/01/03 22:44:13;;;;;;;33.58;9.65;;;;;;;;;;5004418;28;20085;-50
2024/01/03 22:46:44;;;;;;;29.23;9.50;;;;;;;;;;4985830;28;20077;-57
2024/01/03 22:49:13;;;;;;;29.38;10.27;;;;;;;;;;4999203;28;20030;-56
2024/01/03 22:51:41;;;;;;;35.97;10.05;;;;;;;;;;4999388;28;20039;-48
2024/01/03 22:54:08;;;;;;;24.60;9.65;;;;;;;;;;5002458;28;20018;-46
2024/01/03 22:56:35;;;;;;;24.77;9.50;;;;;;;;;;5004383;28;20037;-49
2024/01/03 22:59:02;;;;;;;28.52;10.13;;;;;;;;;;5003796;28;20019;-47
2024/01/03 23:01:28;;;;;;;35.08;11.75;;;;;;;;;;5004965;28;20045;-52
2024/01/03 23:03:59;;;;;;;46.20;12.65;;;;;;;;;;4989099;28;20340;-44
2024/01/03 23:06:25;;;;;;;63.63;13.13;;;;;;;;;;5001123;28;20274;-50
2024/01/03 23:08:52;;;;;;;49.97;12.70;;;;;;;;;;4985161;28;20026;-44
2024/01/03 23:11:19;;;;;;;47.53;13.50;;;;;;;;;;4989228;28;20052;-49
2024/01/03 23:13:45;;;;;;;53.83;12.98;;;;;;;;;;5001422;28;20024;-45
2024/01/03 23:16:12;;;;;;;55.30;15.07;;;;;;;;;;5000869;28;20034;-44
2024/01/03 23:18:38;;;;;;;58.25;14.00;;;;;;;;;;5002744;28;20088;-45
2024/01/03 23:21:05;;;;;;;59.47;13.32;;;;;;;;;;5004162;28;20022;-53
2024/01/03 23:23:32;;;;;;;55.08;13.30;;;;;;;;;;5001264;28;20042;-52
2024/01/03 23:25:59;;;;;;;56.17;14.48;;;;;;;;;;5001066;28;20105;-55
2024/01/03 23:28:25;;;;;;;59.50;14.48;;;;;;;;;;5000683;28;20126;-58
2024/01/03 23:30:52;;;;;;;62.47;14.18;;;;;;;;;;5001813;28;20041;-53